createdAt,value
2023-01-25T00:00:45.577Z,84.87
2023-01-25T00:01:20.074Z,84.86
2023-01-25T00:01:53.197Z,84.98
2023-01-25T00:02:24.903Z,84.56
2023-01-25T00:02:56.921Z,85.09
2023-01-25T00:03:30.011Z,84.72
2023-01-25T00:04:01.695Z,85.07
2023-01-25T00:05:20.019Z,84.98
2023-01-25T00:05:59.672Z,84.89
2023-01-25T00:06:31.297Z,85.23
2023-01-25T00:07:02.981Z,85.34
2023-01-25T00:07:34.707Z,85.43
2023-01-25T00:08:06.585Z,85.08
2023-01-25T00:08:38.610Z,84.99
2023-01-25T00:09:11.731Z,84.95
2023-01-25T00:09:43.424Z,85.05
2023-01-25T00:10:18.217Z,85.32
2023-01-25T00:10:51.795Z,85.42
2023-01-25T00:11:23.501Z,85.23
2023-01-25T00:11:57.992Z,85.95
2023-01-25T00:12:36.811Z,85.33
2023-01-25T00:13:08.495Z,85.35
2023-01-25T00:13:40.159Z,85.57
2023-01-25T00:14:13.585Z,85.28
2023-01-25T00:14:45.826Z,85.59
2023-01-25T00:15:17.527Z,85.12
2023-01-25T00:15:49.214Z,85.05
2023-01-25T00:16:21.231Z,85.28
2023-01-25T00:16:55.720Z,85.52
2023-01-25T00:17:29.996Z,85.20
2023-01-25T00:18:01.706Z,85.70
2023-01-25T00:18:33.564Z,85.57
2023-01-25T00:19:08.995Z,86.07
2023-01-25T00:19:40.637Z,86.12
2023-01-25T00:20:12.357Z,86.22
2023-01-25T00:20:44.028Z,86.53
2023-01-25T00:21:18.859Z,86.55
2023-01-25T00:21:50.485Z,85.85
2023-01-25T00:22:22.331Z,86.09
2023-01-25T00:22:54.015Z,85.65
2023-01-25T00:23:25.771Z,86.02
2023-01-25T00:24:00.819Z,86.10
2023-01-25T00:24:32.580Z,85.77
2023-01-25T00:25:04.608Z,86.08
2023-01-25T00:25:37.788Z,86.09
2023-01-25T00:26:09.521Z,86.00
2023-01-25T00:26:45.803Z,86.67
2023-01-25T00:27:21.563Z,86.31
2023-01-25T00:27:53.173Z,86.92
2023-01-25T00:28:24.826Z,86.88
2023-01-25T00:28:57.007Z,87.89
2023-01-25T00:29:28.664Z,88.02
2023-01-25T00:30:02.587Z,88.25
2023-01-25T00:30:34.249Z,88.12
2023-01-25T00:31:07.798Z,88.65
2023-01-25T00:31:55.386Z,89.08
2023-01-25T00:32:49.416Z,88.98
2023-01-25T00:33:27.082Z,89.69
2023-01-25T00:34:10.693Z,89.38
2023-01-25T00:34:50.816Z,89.80
2023-01-25T00:35:22.698Z,89.83
2023-01-25T00:35:59.201Z,90.17
2023-01-25T00:36:36.819Z,89.54
2023-01-25T00:37:18.838Z,89.75
2023-01-25T00:37:53.852Z,89.67
2023-01-25T00:38:33.790Z,89.35
2023-01-25T00:39:07.073Z,89.14
2023-01-25T00:39:41.621Z,89.17
2023-01-25T00:40:13.842Z,88.98
2023-01-25T00:40:45.483Z,88.82
2023-01-25T00:41:17.103Z,88.92
2023-01-25T00:41:48.783Z,88.99
2023-01-25T00:42:20.916Z,88.80
2023-01-25T00:42:57.097Z,88.53
2023-01-25T00:43:31.316Z,88.42
2023-01-25T00:44:03.030Z,88.59
2023-01-25T00:44:34.666Z,88.69
2023-01-25T00:45:07.195Z,88.50
2023-01-25T00:45:39.049Z,88.34
2023-01-25T00:46:16.259Z,88.84
2023-01-25T00:46:48.607Z,88.21
2023-01-25T00:47:20.480Z,88.66
2023-01-25T00:47:55.304Z,88.92
2023-01-25T00:48:26.963Z,88.83
2023-01-25T00:48:58.626Z,88.73
2023-01-25T00:49:31.738Z,88.57
2023-01-25T00:50:03.529Z,89.11
2023-01-25T00:50:39.227Z,89.06
2023-01-25T00:51:11.777Z,88.83
2023-01-25T00:51:44.592Z,89.25
2023-01-25T00:52:16.332Z,89.43
2023-01-25T00:52:50.144Z,89.48
2023-01-25T00:53:21.857Z,88.83
2023-01-25T00:53:55.938Z,89.01
2023-01-25T00:54:31.333Z,89.33
2023-01-25T00:55:03.327Z,88.89
2023-01-25T00:55:35.128Z,88.70
2023-01-25T00:56:08.327Z,88.87
2023-01-25T00:56:39.989Z,88.65
2023-01-25T00:57:11.713Z,88.21
2023-01-25T00:57:43.372Z,88.22
2023-01-25T00:58:14.997Z,88.33
2023-01-25T00:58:51.029Z,88.01
2023-01-25T00:59:24.387Z,87.80
2023-01-25T00:59:56.064Z,88.04
2023-01-25T01:00:27.701Z,87.76
2023-01-25T01:00:59.470Z,88.18
2023-01-25T01:01:31.154Z,87.90
2023-01-25T01:02:03.192Z,87.96
2023-01-25T01:02:34.853Z,88.26
2023-01-25T01:03:06.517Z,88.06
2023-01-25T01:03:38.764Z,88.14
2023-01-25T01:04:10.864Z,88.24
2023-01-25T01:04:42.619Z,87.99
2023-01-25T01:05:17.210Z,87.99
2023-01-25T01:05:51.440Z,87.92
2023-01-25T01:06:25.734Z,87.49
2023-01-25T01:06:57.484Z,87.25
2023-01-25T01:07:31.468Z,87.92
2023-01-25T01:08:03.116Z,87.61
2023-01-25T01:08:38.599Z,87.39
2023-01-25T01:09:16.057Z,87.64
2023-01-25T01:09:47.808Z,87.33
2023-01-25T01:10:19.470Z,87.64
2023-01-25T01:10:51.132Z,87.47
2023-01-25T01:11:23.068Z,87.30
2023-01-25T01:11:56.972Z,87.36
2023-01-25T01:12:28.662Z,87.55
2023-01-25T01:13:02.506Z,87.99
2023-01-25T01:13:34.957Z,87.98
2023-01-25T01:14:09.785Z,88.55
2023-01-25T01:14:43.250Z,88.50
2023-01-25T01:15:14.893Z,88.57
2023-01-25T01:15:46.540Z,88.51
2023-01-25T01:16:18.194Z,89.03
2023-01-25T01:16:49.884Z,89.33
2023-01-25T01:17:21.636Z,88.77
2023-01-25T01:17:53.272Z,89.43
2023-01-25T01:18:24.916Z,89.53
2023-01-25T01:18:56.554Z,89.29
2023-01-25T01:19:35.639Z,89.33
2023-01-25T01:20:07.613Z,89.82
2023-01-25T01:20:39.308Z,89.82
2023-01-25T01:21:14.555Z,89.87
2023-01-25T01:21:46.247Z,89.83
2023-01-25T01:22:17.895Z,90.44
2023-01-25T01:22:52.503Z,90.21
2023-01-25T01:23:26.537Z,90.22
2023-01-25T01:23:58.702Z,90.03
2023-01-25T01:24:30.383Z,90.00
2023-01-25T01:25:04.300Z,89.61
2023-01-25T01:25:37.070Z,89.42
2023-01-25T01:26:15.326Z,89.48
2023-01-25T01:26:46.998Z,90.16
2023-01-25T01:27:18.669Z,90.63
2023-01-25T01:27:50.320Z,89.68
2023-01-25T01:28:22.155Z,90.49
2023-01-25T01:28:53.797Z,90.59
2023-01-25T01:29:26.706Z,90.63
2023-01-25T01:29:58.341Z,90.79
2023-01-25T01:30:29.985Z,90.59
2023-01-25T01:31:02.460Z,91.20
2023-01-25T01:31:34.293Z,91.42
2023-01-25T01:32:06.405Z,90.97
2023-01-25T01:32:40.820Z,91.26
2023-01-25T01:33:12.527Z,90.60
2023-01-25T01:33:44.470Z,90.92
2023-01-25T01:34:16.125Z,91.06
2023-01-25T01:34:47.796Z,91.39
2023-01-25T01:35:21.737Z,91.35
2023-01-25T01:35:53.365Z,91.23
2023-01-25T01:36:28.169Z,91.21
2023-01-25T01:36:59.799Z,91.46
2023-01-25T01:37:31.466Z,91.08
2023-01-25T01:38:05.519Z,91.31
2023-01-25T01:38:37.516Z,91.39
2023-01-25T01:39:09.579Z,91.29
2023-01-25T01:39:41.338Z,91.24
2023-01-25T01:40:17.007Z,92.03
2023-01-25T01:40:51.777Z,91.75
2023-01-25T01:41:23.450Z,92.20
2023-01-25T01:41:55.097Z,91.87
2023-01-25T01:42:26.827Z,91.90
2023-01-25T01:43:16.015Z,91.87
2023-01-25T01:43:49.622Z,91.87
2023-01-25T01:44:51.820Z,91.74
2023-01-25T01:46:07.900Z,92.08
2023-01-25T01:46:39.851Z,91.61
2023-01-25T01:47:38.689Z,91.55
2023-01-25T01:48:39.443Z,91.68
2023-01-25T01:49:16.186Z,91.73
2023-01-25T01:49:57.690Z,91.55
2023-01-25T01:50:29.369Z,92.10
2023-01-25T01:51:26.447Z,92.31
2023-01-25T01:52:00.530Z,91.83
2023-01-25T01:52:39.552Z,92.02
2023-01-25T01:53:11.501Z,92.01
2023-01-25T01:53:48.226Z,91.71
2023-01-25T01:54:42.862Z,91.55
2023-01-25T01:55:22.045Z,91.51
2023-01-25T01:55:58.494Z,91.74
2023-01-25T01:56:47.718Z,91.65
2023-01-25T01:57:32.612Z,91.56
2023-01-25T01:58:06.492Z,91.48
2023-01-25T01:58:39.905Z,91.76
2023-01-25T01:59:12.690Z,91.03
2023-01-25T01:59:55.284Z,91.30
2023-01-25T02:00:34.326Z,91.54
2023-01-25T02:01:06.164Z,91.12
2023-01-25T02:01:38.059Z,91.13
2023-01-25T02:02:10.030Z,91.03
2023-01-25T02:02:42.033Z,91.17
2023-01-25T02:03:16.909Z,90.57
2023-01-25T02:03:53.088Z,91.16
2023-01-25T02:04:27.836Z,91.18
2023-01-25T02:05:05.025Z,90.96
2023-01-25T02:05:47.003Z,90.74
2023-01-25T02:06:36.596Z,91.22
2023-01-25T02:07:17.482Z,91.09
2023-01-25T02:07:55.392Z,91.00
2023-01-25T02:08:30.346Z,91.12
2023-01-25T02:09:02.040Z,90.95
2023-01-25T02:09:36.158Z,91.04
2023-01-25T02:10:11.621Z,90.87
2023-01-25T02:10:47.387Z,91.44
2023-01-25T02:11:20.296Z,91.20
2023-01-25T02:11:53.756Z,91.03
2023-01-25T02:12:26.542Z,91.67
2023-01-25T02:13:02.660Z,91.15
2023-01-25T02:13:37.940Z,91.71
2023-01-25T02:14:12.278Z,91.47
2023-01-25T02:14:53.032Z,91.57
2023-01-25T02:15:31.768Z,90.90
2023-01-25T02:16:07.022Z,91.39
2023-01-25T02:16:40.581Z,91.00
2023-01-25T02:17:12.583Z,90.88
2023-01-25T02:17:44.276Z,91.17
2023-01-25T02:18:18.032Z,91.25
2023-01-25T02:18:52.451Z,91.63
2023-01-25T02:19:47.017Z,91.01
2023-01-25T02:20:29.153Z,90.99
2023-01-25T02:21:02.041Z,90.99
2023-01-25T02:21:42.965Z,90.79
2023-01-25T02:22:29.311Z,91.09
2023-01-25T02:23:14.106Z,91.13
2023-01-25T02:24:11.972Z,90.97
2023-01-25T02:24:56.804Z,91.20
2023-01-25T02:25:29.816Z,91.27
2023-01-25T02:26:05.443Z,91.04
2023-01-25T02:26:37.449Z,91.73
2023-01-25T02:27:09.106Z,91.81
2023-01-25T02:27:48.575Z,91.38
2023-01-25T02:28:52.754Z,91.85
2023-01-25T02:29:27.547Z,91.50
2023-01-25T02:29:59.631Z,91.73
2023-01-25T02:30:34.621Z,91.55
2023-01-25T02:31:07.216Z,91.36
2023-01-25T02:31:38.977Z,90.73
2023-01-25T02:32:12.315Z,91.44
2023-01-25T02:32:46.944Z,91.09
2023-01-25T02:33:20.974Z,91.60
2023-01-25T02:33:52.783Z,91.23
2023-01-25T02:34:24.445Z,91.18
2023-01-25T02:34:56.044Z,91.66
2023-01-25T02:35:43.358Z,91.35
2023-01-25T02:36:26.247Z,91.31
2023-01-25T02:37:00.613Z,90.85
2023-01-25T02:37:36.208Z,91.10
2023-01-25T02:38:11.942Z,91.02
2023-01-25T02:38:56.808Z,91.55
2023-01-25T02:39:31.291Z,90.90
2023-01-25T02:40:05.743Z,91.36
2023-01-25T02:41:06.726Z,90.90
2023-01-25T02:41:47.318Z,91.47
2023-01-25T02:42:18.953Z,91.65
2023-01-25T02:42:50.585Z,91.51
2023-01-25T02:43:25.043Z,91.11
2023-01-25T02:43:58.672Z,91.36
2023-01-25T02:44:36.231Z,91.00
2023-01-25T02:45:14.662Z,91.53
2023-01-25T02:45:52.676Z,91.14
2023-01-25T02:46:31.705Z,91.11
2023-01-25T02:47:03.570Z,91.75
2023-01-25T02:47:35.200Z,90.94
2023-01-25T02:48:06.945Z,91.59
2023-01-25T02:48:38.575Z,91.75
2023-01-25T02:49:11.943Z,92.00
2023-01-25T02:49:43.666Z,92.09
2023-01-25T02:50:16.023Z,92.15
2023-01-25T02:50:50.035Z,92.13
2023-01-25T02:51:27.349Z,91.51
2023-01-25T02:51:59.018Z,92.07
2023-01-25T02:52:33.589Z,91.92
2023-01-25T02:53:05.223Z,92.26
2023-01-25T02:53:36.994Z,91.55
2023-01-25T02:54:11.926Z,91.72
2023-01-25T02:54:43.651Z,91.33
2023-01-25T02:55:15.332Z,91.48
2023-01-25T02:55:46.950Z,92.17
2023-01-25T02:56:18.942Z,92.37
2023-01-25T02:56:50.675Z,92.18
2023-01-25T02:57:23.230Z,92.17
2023-01-25T02:57:54.916Z,92.36
2023-01-25T02:58:27.130Z,91.62
2023-01-25T02:58:59.324Z,92.44
2023-01-25T02:59:31.020Z,91.55
2023-01-25T03:00:03.141Z,91.38
2023-01-25T03:00:37.388Z,91.96
2023-01-25T03:01:10.012Z,91.81
2023-01-25T03:01:46.631Z,91.39
2023-01-25T03:02:18.770Z,92.28
2023-01-25T03:02:50.471Z,92.17
2023-01-25T03:03:22.297Z,91.96
2023-01-25T03:03:53.960Z,91.74
2023-01-25T03:04:25.637Z,91.57
2023-01-25T03:04:57.292Z,91.29
2023-01-25T03:05:28.946Z,91.63
2023-01-25T03:06:00.639Z,92.24
2023-01-25T03:06:36.136Z,91.69
2023-01-25T03:07:07.827Z,92.17
2023-01-25T03:07:42.411Z,91.21
2023-01-25T03:08:14.153Z,92.06
2023-01-25T03:08:46.501Z,91.76
2023-01-25T03:09:18.147Z,91.71
2023-01-25T03:09:50.164Z,91.30
2023-01-25T03:10:24.434Z,91.97
2023-01-25T03:11:00.584Z,92.01
2023-01-25T03:11:34.089Z,91.78
2023-01-25T03:12:06.145Z,92.01
2023-01-25T03:12:37.831Z,91.19
2023-01-25T03:13:09.480Z,91.85
2023-01-25T03:13:41.218Z,92.04
2023-01-25T03:14:17.268Z,91.56
2023-01-25T03:14:51.001Z,91.97
2023-01-25T03:15:22.690Z,91.88
2023-01-25T03:16:00.993Z,91.60
2023-01-25T03:16:32.818Z,92.16
2023-01-25T03:17:04.876Z,91.34
2023-01-25T03:17:36.847Z,91.41
2023-01-25T03:18:10.026Z,91.89
2023-01-25T03:18:42.365Z,91.65
2023-01-25T03:19:14.075Z,91.99
2023-01-25T03:19:45.754Z,91.83
2023-01-25T03:20:17.452Z,91.26
2023-01-25T03:20:49.100Z,91.28
2023-01-25T03:21:22.326Z,91.75
2023-01-25T03:21:53.968Z,92.04
2023-01-25T03:22:25.816Z,91.03
2023-01-25T03:22:57.497Z,91.68
2023-01-25T03:23:29.137Z,90.96
2023-01-25T03:24:02.831Z,91.07
2023-01-25T03:24:36.295Z,91.21
2023-01-25T03:25:08.985Z,91.86
2023-01-25T03:25:40.841Z,91.26
2023-01-25T03:26:18.777Z,91.55
2023-01-25T03:27:09.147Z,91.49
2023-01-25T03:27:41.000Z,91.71
2023-01-25T03:28:13.184Z,91.43
2023-01-25T03:28:45.082Z,92.00
2023-01-25T03:29:16.758Z,91.78
2023-01-25T03:29:48.401Z,91.91
2023-01-25T03:30:20.149Z,91.95
2023-01-25T03:30:53.825Z,92.22
2023-01-25T03:31:27.686Z,91.95
2023-01-25T03:31:59.615Z,92.12
2023-01-25T03:32:31.555Z,91.99
2023-01-25T03:33:03.299Z,91.45
2023-01-25T03:33:35.510Z,92.05
2023-01-25T03:34:07.276Z,91.64
2023-01-25T03:34:48.531Z,91.85
2023-01-25T03:35:20.181Z,91.96
2023-01-25T03:35:55.951Z,92.17
2023-01-25T03:36:27.678Z,91.81
2023-01-25T03:36:59.469Z,91.80
2023-01-25T03:37:33.766Z,91.89
2023-01-25T03:38:05.407Z,91.95
2023-01-25T03:38:37.389Z,91.91
2023-01-25T03:39:09.446Z,92.25
2023-01-25T03:39:43.442Z,92.76
2023-01-25T03:40:15.182Z,91.82
2023-01-25T03:40:47.704Z,92.19
2023-01-25T03:41:19.389Z,92.27
2023-01-25T03:41:51.059Z,91.55
2023-01-25T03:42:23.423Z,92.10
2023-01-25T03:42:55.097Z,91.66
2023-01-25T03:43:26.927Z,92.61
2023-01-25T03:44:00.914Z,91.69
2023-01-25T03:44:32.841Z,92.42
2023-01-25T03:45:05.673Z,92.28
2023-01-25T03:45:37.356Z,91.85
2023-01-25T03:46:09.118Z,92.59
2023-01-25T03:46:43.471Z,92.54
2023-01-25T03:47:15.224Z,92.50
2023-01-25T03:47:46.876Z,91.79
2023-01-25T03:48:18.677Z,92.08
2023-01-25T03:48:50.422Z,91.81
2023-01-25T03:49:22.093Z,91.78
2023-01-25T03:49:53.728Z,92.33
2023-01-25T03:50:25.371Z,92.21
2023-01-25T03:50:59.534Z,92.26
2023-01-25T03:51:31.185Z,91.96
2023-01-25T03:52:02.995Z,91.88
2023-01-25T03:52:42.016Z,92.35
2023-01-25T03:53:32.118Z,91.58
2023-01-25T03:54:04.368Z,92.18
2023-01-25T03:54:36.039Z,92.22
2023-01-25T03:55:08.300Z,92.23
2023-01-25T03:55:40.114Z,91.95
2023-01-25T03:56:17.587Z,92.54
2023-01-25T03:56:50.726Z,91.70
2023-01-25T03:57:22.399Z,92.10
2023-01-25T03:57:57.073Z,92.06
2023-01-25T03:58:30.328Z,91.82
2023-01-25T03:59:01.978Z,91.75
2023-01-25T03:59:33.711Z,92.16
2023-01-25T04:00:08.538Z,92.10
2023-01-25T04:00:40.290Z,92.07
2023-01-25T04:01:12.141Z,92.21
2023-01-25T04:01:43.868Z,91.78
2023-01-25T04:02:15.581Z,91.93
2023-01-25T04:02:47.356Z,92.23
2023-01-25T04:03:19.972Z,92.19
2023-01-25T04:03:51.589Z,91.94
2023-01-25T04:04:25.851Z,91.74
2023-01-25T04:04:59.988Z,91.51
2023-01-25T04:05:33.197Z,91.50
2023-01-25T04:06:08.542Z,91.24
2023-01-25T04:06:40.292Z,91.95
2023-01-25T04:07:11.933Z,91.75
2023-01-25T04:07:43.646Z,91.29
2023-01-25T04:08:18.154Z,91.72
2023-01-25T04:08:49.824Z,91.78
2023-01-25T04:09:21.550Z,91.70
2023-01-25T04:09:55.126Z,91.79
2023-01-25T04:10:26.778Z,91.25
2023-01-25T04:11:05.022Z,91.77
2023-01-25T04:11:36.721Z,91.12
2023-01-25T04:12:08.416Z,91.66
2023-01-25T04:12:40.087Z,91.33
2023-01-25T04:13:16.953Z,91.96
2023-01-25T04:13:48.660Z,91.77
2023-01-25T04:14:34.996Z,91.46
2023-01-25T04:15:11.018Z,91.63
2023-01-25T04:15:42.825Z,91.85
2023-01-25T04:16:14.508Z,92.14
2023-01-25T04:16:46.236Z,92.18
2023-01-25T04:17:17.945Z,91.20
2023-01-25T04:17:51.926Z,91.62
2023-01-25T04:18:26.063Z,91.81
2023-01-25T04:18:57.657Z,91.65
2023-01-25T04:19:29.305Z,91.67
2023-01-25T04:20:00.982Z,91.13
2023-01-25T04:20:32.699Z,91.73
2023-01-25T04:21:07.661Z,91.02
2023-01-25T04:21:39.345Z,90.83
2023-01-25T04:22:11.023Z,91.50
2023-01-25T04:22:42.663Z,91.21
2023-01-25T04:23:16.347Z,91.90
2023-01-25T04:23:50.052Z,91.82
2023-01-25T04:24:21.785Z,91.29
2023-01-25T04:24:53.477Z,91.52
2023-01-25T04:25:25.179Z,91.16
2023-01-25T04:26:07.797Z,91.28
2023-01-25T04:26:39.446Z,91.32
2023-01-25T04:27:11.218Z,91.07
2023-01-25T04:27:42.878Z,91.54
2023-01-25T04:28:14.525Z,91.41
2023-01-25T04:28:46.171Z,91.07
2023-01-25T04:29:18.570Z,90.86
2023-01-25T04:29:50.294Z,90.87
2023-01-25T04:30:21.929Z,91.43
2023-01-25T04:30:57.343Z,90.89
2023-01-25T04:31:31.320Z,90.62
2023-01-25T04:32:03.253Z,90.74
2023-01-25T04:32:36.276Z,91.62
2023-01-25T04:33:08.125Z,90.79
2023-01-25T04:33:39.799Z,91.53
2023-01-25T04:34:11.456Z,91.04
2023-01-25T04:34:43.117Z,91.28
2023-01-25T04:35:14.892Z,90.98
2023-01-25T04:35:46.675Z,91.15
2023-01-25T04:36:18.437Z,91.12
2023-01-25T04:36:50.133Z,91.68
2023-01-25T04:37:24.589Z,91.89
2023-01-25T04:37:58.327Z,92.10
2023-01-25T04:38:30.015Z,91.46
2023-01-25T04:39:01.672Z,91.83
2023-01-25T04:39:33.345Z,91.42
2023-01-25T04:40:06.098Z,91.35
2023-01-25T04:40:38.089Z,92.11
2023-01-25T04:41:09.718Z,91.46
2023-01-25T04:41:43.196Z,91.43
2023-01-25T04:42:16.092Z,91.71
2023-01-25T04:42:49.803Z,91.58
2023-01-25T04:43:21.720Z,91.88
2023-01-25T04:43:53.426Z,92.04
2023-01-25T04:44:25.043Z,91.77
2023-01-25T04:44:56.680Z,91.88
2023-01-25T04:45:31.105Z,92.10
2023-01-25T04:46:03.172Z,92.12
2023-01-25T04:46:34.842Z,91.96
2023-01-25T04:47:06.467Z,91.66
2023-01-25T04:47:38.110Z,92.13
2023-01-25T04:48:12.237Z,91.92
2023-01-25T04:48:44.290Z,91.18
2023-01-25T04:49:15.969Z,91.94
2023-01-25T04:49:47.722Z,91.36
2023-01-25T04:50:19.352Z,91.58
2023-01-25T04:50:51.059Z,91.50
2023-01-25T04:51:22.691Z,91.74
2023-01-25T04:51:56.498Z,91.60
2023-01-25T04:52:31.236Z,91.06
2023-01-25T04:53:02.932Z,91.11
2023-01-25T04:53:34.610Z,91.59
2023-01-25T04:54:06.317Z,91.57
2023-01-25T04:54:40.383Z,92.09
2023-01-25T04:55:14.488Z,91.37
2023-01-25T04:55:47.833Z,91.86
2023-01-25T04:56:19.526Z,92.03
2023-01-25T04:56:51.194Z,92.16
2023-01-25T04:57:23.021Z,91.36
2023-01-25T04:57:56.778Z,92.04
2023-01-25T04:58:28.518Z,91.28
2023-01-25T04:59:00.147Z,91.20
2023-01-25T04:59:33.887Z,91.14
2023-01-25T05:00:06.259Z,91.44
2023-01-25T05:00:37.991Z,91.29
2023-01-25T05:01:10.322Z,91.13
2023-01-25T05:01:42.009Z,92.10
2023-01-25T05:02:13.774Z,91.84
2023-01-25T05:02:48.544Z,92.06
2023-01-25T05:03:20.249Z,91.64
2023-01-25T05:03:53.672Z,91.52
2023-01-25T05:04:26.890Z,91.70
2023-01-25T05:04:58.567Z,91.69
2023-01-25T05:05:30.293Z,91.00
2023-01-25T05:06:01.930Z,91.90
2023-01-25T05:06:33.940Z,90.94
2023-01-25T05:07:07.350Z,90.87
2023-01-25T05:07:41.098Z,91.62
2023-01-25T05:08:14.044Z,91.88
2023-01-25T05:08:47.985Z,90.95
2023-01-25T05:09:28.296Z,91.84
2023-01-25T05:10:00.076Z,91.31
2023-01-25T05:10:33.876Z,90.90
2023-01-25T05:11:05.816Z,91.37
2023-01-25T05:11:37.435Z,91.11
2023-01-25T05:12:11.923Z,91.65
2023-01-25T05:12:43.898Z,91.27
2023-01-25T05:13:15.568Z,91.23
2023-01-25T05:13:47.278Z,91.72
2023-01-25T05:14:18.964Z,91.31
2023-01-25T05:14:50.666Z,90.93
2023-01-25T05:15:22.350Z,90.99
2023-01-25T05:15:58.491Z,91.02
2023-01-25T05:16:30.128Z,90.99
2023-01-25T05:17:01.857Z,90.61
2023-01-25T05:17:33.696Z,91.00
2023-01-25T05:18:05.462Z,90.25
2023-01-25T05:18:47.835Z,90.51
2023-01-25T05:19:20.299Z,89.90
2023-01-25T05:19:51.943Z,90.76
2023-01-25T05:20:23.674Z,90.84
2023-01-25T05:20:58.841Z,90.76
2023-01-25T05:21:54.120Z,90.90
2023-01-25T05:22:25.770Z,90.43
2023-01-25T05:22:59.759Z,90.57
2023-01-25T05:23:31.374Z,91.22
2023-01-25T05:24:03.121Z,90.88
2023-01-25T05:24:38.280Z,90.23
2023-01-25T05:25:32.070Z,91.12
2023-01-25T05:26:22.242Z,90.85
2023-01-25T05:27:00.557Z,91.16
2023-01-25T05:27:32.213Z,90.88
2023-01-25T05:28:07.580Z,90.46
2023-01-25T05:28:39.213Z,91.23
2023-01-25T05:29:10.880Z,90.64
2023-01-25T05:29:44.953Z,90.93
2023-01-25T05:30:16.709Z,90.61
2023-01-25T05:30:48.593Z,91.36
2023-01-25T05:31:20.412Z,90.70
2023-01-25T05:31:52.155Z,91.51
2023-01-25T05:32:24.257Z,90.55
2023-01-25T05:32:55.891Z,91.13
2023-01-25T05:33:29.497Z,90.66
2023-01-25T05:34:04.080Z,90.92
2023-01-25T05:34:36.088Z,91.23
2023-01-25T05:35:10.905Z,90.67
2023-01-25T05:35:43.480Z,90.91
2023-01-25T05:36:15.129Z,91.18
2023-01-25T05:36:46.798Z,90.50
2023-01-25T05:37:23.285Z,90.24
2023-01-25T05:37:58.559Z,90.67
2023-01-25T05:38:33.344Z,91.02
2023-01-25T05:39:06.745Z,91.01
2023-01-25T05:39:38.420Z,91.05
2023-01-25T05:40:10.665Z,91.16
2023-01-25T05:40:42.337Z,90.64
2023-01-25T05:41:15.222Z,91.23
2023-01-25T05:41:47.025Z,90.51
2023-01-25T05:42:21.771Z,91.80
2023-01-25T05:43:00.623Z,90.86
2023-01-25T05:43:36.515Z,91.80
2023-01-25T05:44:08.188Z,91.21
2023-01-25T05:44:40.035Z,94.23
2023-01-25T05:45:11.945Z,94.95
2023-01-25T05:45:45.826Z,95.69
2023-01-25T05:46:26.245Z,95.55
2023-01-25T05:46:57.936Z,93.94
2023-01-25T05:47:31.438Z,92.04
2023-01-25T05:48:03.249Z,91.26
2023-01-25T05:48:34.927Z,90.09
2023-01-25T05:49:06.644Z,90.21
2023-01-25T05:49:45.636Z,90.31
2023-01-25T05:50:17.317Z,93.77
2023-01-25T05:50:48.983Z,95.65
2023-01-25T05:51:20.646Z,96.85
2023-01-25T05:51:52.424Z,96.83
2023-01-25T05:52:25.573Z,96.27
2023-01-25T05:52:57.377Z,93.92
2023-01-25T05:53:30.429Z,91.67
2023-01-25T05:54:03.225Z,90.23
2023-01-25T05:54:34.837Z,90.23
2023-01-25T05:55:07.229Z,89.40
2023-01-25T05:55:44.148Z,89.37
2023-01-25T05:56:15.784Z,89.53
2023-01-25T05:56:50.196Z,89.61
2023-01-25T05:57:24.436Z,88.52
2023-01-25T05:57:59.331Z,88.70
2023-01-25T05:58:30.993Z,89.47
2023-01-25T05:59:04.984Z,88.75
2023-01-25T05:59:36.707Z,89.46
2023-01-25T06:00:09.980Z,88.80
2023-01-25T06:00:41.666Z,89.33
2023-01-25T06:01:13.571Z,89.11
2023-01-25T06:01:45.231Z,89.04
2023-01-25T06:02:17.037Z,89.52
2023-01-25T06:02:48.805Z,89.74
2023-01-25T06:03:20.638Z,89.49
2023-01-25T06:03:52.427Z,89.22
2023-01-25T06:04:34.139Z,89.15
2023-01-25T06:05:09.145Z,88.83
2023-01-25T06:05:41.051Z,90.02
2023-01-25T06:06:14.236Z,89.87
2023-01-25T06:06:48.619Z,89.20
2023-01-25T06:07:20.269Z,89.02
2023-01-25T06:07:54.048Z,89.67
2023-01-25T06:08:25.746Z,89.99
2023-01-25T06:08:57.446Z,90.10
2023-01-25T06:09:31.142Z,89.15
2023-01-25T06:10:04.849Z,89.40
2023-01-25T06:10:36.516Z,89.91
2023-01-25T06:11:09.855Z,89.83
2023-01-25T06:11:47.398Z,89.07
2023-01-25T06:12:25.277Z,89.59
2023-01-25T06:13:02.887Z,89.42
2023-01-25T06:13:34.880Z,89.35
2023-01-25T06:14:06.511Z,89.26
2023-01-25T06:14:38.163Z,89.48
2023-01-25T06:15:10.686Z,89.46
2023-01-25T06:15:42.726Z,89.70
2023-01-25T06:16:15.453Z,89.61
2023-01-25T06:16:47.143Z,89.30
2023-01-25T06:17:18.798Z,89.52
2023-01-25T06:17:54.238Z,89.23
2023-01-25T06:18:25.914Z,89.30
2023-01-25T06:18:57.599Z,90.00
2023-01-25T06:19:29.239Z,89.35
2023-01-25T06:20:02.872Z,90.02
2023-01-25T06:20:37.034Z,90.00
2023-01-25T06:21:09.371Z,89.35
2023-01-25T06:21:41.267Z,89.96
2023-01-25T06:22:12.898Z,89.70
2023-01-25T06:22:49.809Z,89.90
2023-01-25T06:23:21.447Z,89.55
2023-01-25T06:23:53.138Z,89.23
2023-01-25T06:24:25.024Z,89.52
2023-01-25T06:24:59.424Z,89.64
2023-01-25T06:25:31.072Z,89.16
2023-01-25T06:26:06.542Z,89.27
2023-01-25T06:26:38.223Z,89.60
2023-01-25T06:27:13.574Z,89.65
2023-01-25T06:27:45.373Z,89.64
2023-01-25T06:28:17.063Z,89.42
2023-01-25T06:28:48.756Z,89.47
2023-01-25T06:29:20.393Z,89.65
2023-01-25T06:29:52.078Z,88.98
2023-01-25T06:30:25.222Z,88.94
2023-01-25T06:30:58.808Z,89.09
2023-01-25T06:31:30.629Z,89.47
2023-01-25T06:32:02.462Z,88.58
2023-01-25T06:32:34.220Z,89.44
2023-01-25T06:33:06.019Z,88.78
2023-01-25T06:33:38.450Z,89.03
2023-01-25T06:34:10.177Z,88.92
2023-01-25T06:34:41.949Z,91.83
2023-01-25T06:35:13.585Z,91.37
2023-01-25T06:35:48.332Z,89.02
2023-01-25T06:36:21.682Z,90.77
2023-01-25T06:36:53.569Z,94.25
2023-01-25T06:37:27.081Z,94.36
2023-01-25T06:37:59.989Z,95.61
2023-01-25T06:38:34.761Z,97.90
2023-01-25T06:39:06.757Z,98.95
2023-01-25T06:39:39.562Z,99.16
2023-01-25T06:40:14.615Z,99.83
2023-01-25T06:40:46.260Z,100.00
2023-01-25T06:41:22.412Z,100.00
2023-01-25T06:41:55.080Z,100.00
2023-01-25T06:42:26.809Z,100.00
2023-01-25T06:43:18.021Z,100.00
2023-01-25T06:43:53.202Z,100.00
2023-01-25T06:44:27.190Z,100.00
2023-01-25T06:44:58.857Z,100.00
2023-01-25T06:45:30.751Z,100.00
2023-01-25T06:46:05.082Z,99.64
2023-01-25T06:46:36.883Z,96.58
2023-01-25T06:47:12.282Z,92.15
2023-01-25T06:47:52.640Z,88.60
2023-01-25T06:48:24.301Z,87.21
2023-01-25T06:48:56.032Z,87.50
2023-01-25T06:49:29.236Z,87.03
2023-01-25T06:50:03.078Z,86.95
2023-01-25T06:50:37.152Z,86.16
2023-01-25T06:51:14.094Z,87.03
2023-01-25T06:51:46.717Z,86.79
2023-01-25T06:52:18.390Z,87.43
2023-01-25T06:52:56.816Z,87.18
2023-01-25T06:53:30.727Z,87.67
2023-01-25T06:54:05.397Z,87.34
2023-01-25T06:54:37.066Z,87.78
2023-01-25T06:55:13.767Z,88.08
2023-01-25T06:55:47.112Z,88.30
2023-01-25T06:56:21.852Z,88.32
2023-01-25T06:56:53.639Z,87.91
2023-01-25T06:57:25.319Z,88.59
2023-01-25T06:58:00.795Z,87.98
2023-01-25T06:58:35.820Z,88.03
2023-01-25T06:59:07.610Z,87.99
2023-01-25T06:59:39.252Z,88.36
2023-01-25T07:00:11.607Z,88.00
2023-01-25T07:00:45.099Z,88.60
2023-01-25T07:01:22.609Z,88.44
2023-01-25T07:01:54.372Z,88.88
2023-01-25T07:02:26.178Z,88.40
2023-01-25T07:02:57.917Z,88.52
2023-01-25T07:03:30.862Z,88.52
2023-01-25T07:04:02.538Z,89.25
2023-01-25T07:04:34.285Z,89.02
2023-01-25T07:05:06.371Z,88.63
2023-01-25T07:05:38.076Z,89.28
2023-01-25T07:06:11.193Z,88.96
2023-01-25T07:06:44.500Z,89.65
2023-01-25T07:07:16.179Z,89.77
2023-01-25T07:07:47.896Z,89.27
2023-01-25T07:08:22.414Z,89.30
2023-01-25T07:08:54.104Z,89.10
2023-01-25T07:09:25.763Z,88.94
2023-01-25T07:09:58.992Z,89.45
2023-01-25T07:10:32.413Z,89.16
2023-01-25T07:11:06.874Z,89.25
2023-01-25T07:11:38.601Z,89.92
2023-01-25T07:12:10.310Z,90.07
2023-01-25T07:12:41.945Z,89.61
2023-01-25T07:13:13.620Z,89.85
2023-01-25T07:13:49.377Z,89.75
2023-01-25T07:14:21.059Z,89.80
2023-01-25T07:14:55.562Z,89.90
2023-01-25T07:15:29.581Z,90.18
2023-01-25T07:16:03.975Z,89.65
2023-01-25T07:16:40.136Z,89.52
2023-01-25T07:17:11.816Z,89.47
2023-01-25T07:17:43.469Z,89.85